Time;durP1;ratioP1;P1;durP2;ratioP2;P2;SDS_P1;SDS_P2;PMS_P1;PMS_P2;Temp;Humidity;BMP_temperature;BMP_pressure;BME280_temperature;BME280_humidity;BME280_pressure;Samples;Min_cycle;Max_cycle;Signal;HPM_P1;HPM_P2
2023/04/11 00:01:33;;;;;;;6.68;3.75;;;;;;;;;;5032809;28;20736;-44
2023/04/11 00:04:00;;;;;;;7.15;3.83;;;;;;;;;;5033180;28;20291;-44
2023/04/11 00:06:28;;;;;;;4.88;3.35;;;;;;;;;;5033024;28;20201;-44
2023/04/11 00:08:55;;;;;;;5.97;2.65;;;;;;;;;;5032860;28;20201;-44
2023/04/11 00:11:23;;;;;;;4.53;2.50;;;;;;;;;;5032728;28;20201;-43
2023/04/11 00:13:50;;;;;;;38.75;13.23;;;;;;;;;;5034479;28;20201;-45
2023/04/11 00:16:18;;;;;;;37.90;13.02;;;;;;;;;;5036405;28;20258;-44
2023/04/11 00:18:46;;;;;;;8.27;4.07;;;;;;;;;;5036433;28;20200;-44
2023/04/11 00:21:13;;;;;;;4.00;1.90;;;;;;;;;;5036378;28;20212;-44
2023/04/11 00:23:40;;;;;;;2.58;2.05;;;;;;;;;;5036337;28;20292;-44
2023/04/11 00:26:07;;;;;;;3.15;2.33;;;;;;;;;;5035099;28;20252;-44
2023/04/11 00:28:36;;;;;;;3.10;2.10;;;;;;;;;;5016553;28;20209;-44
2023/04/11 00:31:03;;;;;;;2.47;1.30;;;;;;;;;;5016230;28;20275;-43
2023/04/11 00:33:30;;;;;;;1.88;1.25;;;;;;;;;;5016396;28;20605;-43
2023/04/11 00:35:58;;;;;;;1.77;1.48;;;;;;;;;;5015350;28;20576;-44
2023/04/11 00:38:25;;;;;;;1.77;1.45;;;;;;;;;;5015261;28;20616;-44
2023/04/11 00:40:52;;;;;;;2.15;1.95;;;;;;;;;;5015321;28;20201;-45
2023/04/11 00:43:19;;;;;;;3.35;1.40;;;;;;;;;;5014959;28;20201;-44
2023/04/11 00:45:47;;;;;;;2.20;1.50;;;;;;;;;;5016697;28;20240;-43
2023/04/11 00:48:14;;;;;;;3.35;2.28;;;;;;;;;;5016439;28;20214;-45
2023/04/11 00:50:42;;;;;;;4.25;2.15;;;;;;;;;;5016198;28;20211;-43
2023/04/11 00:53:12;;;;;;;69.47;20.58;;;;;;;;;;5031318;28;20201;-43
2023/04/11 00:55:39;;;;;;;62.47;21.45;;;;;;;;;;5015941;28;20271;-43
2023/04/11 00:58:07;;;;;;;13.88;5.05;;;;;;;;;;5000933;28;20208;-44
2023/04/11 01:00:34;;;;;;;4.22;2.30;;;;;;;;;;5015814;28;20205;-44
2023/04/11 01:03:01;;;;;;;6.13;2.65;;;;;;;;;;5015774;28;20201;-45
2023/04/11 01:05:30;;;;;;;6.45;2.60;;;;;;;;;;5016169;28;20226;-44
2023/04/11 01:07:58;;;;;;;2.72;2.08;;;;;;;;;;4998264;28;20662;-44
2023/04/11 01:10:29;;;;;;;3.95;2.20;;;;;;;;;;4998546;28;20348;-44
2023/04/11 01:12:58;;;;;;;4.07;2.65;;;;;;;;;;5015693;28;20190;-43
2023/04/11 01:15:26;;;;;;;5.82;2.28;;;;;;;;;;5014650;28;20576;-44
2023/04/11 01:17:54;;;;;;;3.35;1.90;;;;;;;;;;5014347;28;20575;-44
2023/04/11 01:20:22;;;;;;;2.15;1.52;;;;;;;;;;5014465;28;20252;-43
2023/04/11 01:22:49;;;;;;;3.28;2.10;;;;;;;;;;4998076;28;20649;-44
2023/04/11 01:25:20;;;;;;;2.53;1.55;;;;;;;;;;5014059;28;20233;-43
2023/04/11 01:27:47;;;;;;;4.32;2.58;;;;;;;;;;5015659;28;20231;-44
2023/04/11 01:30:15;;;;;;;9.87;3.73;;;;;;;;;;4998117;28;20216;-44
2023/04/11 01:32:42;;;;;;;94.28;30.00;;;;;;;;;;5015413;28;20244;-43
2023/04/11 01:35:11;;;;;;;57.23;17.17;;;;;;;;;;5015120;28;20209;-44
2023/04/11 01:37:38;;;;;;;23.90;8.95;;;;;;;;;;5013995;28;20554;-43
2023/04/11 01:40:06;;;;;;;16.70;5.55;;;;;;;;;;5015121;28;20205;-44
2023/04/11 01:42:34;;;;;;;10.13;4.10;;;;;;;;;;5015031;28;20197;-43
2023/04/11 01:45:03;;;;;;;5.20;2.95;;;;;;;;;;5014001;28;20228;-43
2023/04/11 01:47:32;;;;;;;6.43;3.30;;;;;;;;;;4998020;28;20662;-43
2023/04/11 01:50:00;;;;;;;4.55;2.45;;;;;;;;;;5014875;28;20570;-44
2023/04/11 01:52:27;;;;;;;101.00;33.00;;;;;;;;;;4997691;28;20205;-43
2023/04/11 01:54:54;;;;;;;71.30;20.00;;;;;;;;;;5014832;28;20682;-44
2023/04/11 01:57:21;;;;;;;13.77;6.63;;;;;;;;;;5014743;28;20614;-45
2023/04/11 01:59:49;;;;;;;6.75;4.10;;;;;;;;;;4997726;28;20202;-44
2023/04/11 02:02:16;;;;;;;3.63;2.83;;;;;;;;;;4997305;28;20654;-43
2023/04/11 02:04:43;;;;;;;4.10;2.20;;;;;;;;;;5014838;28;20205;-44
2023/04/11 02:07:13;;;;;;;3.50;1.90;;;;;;;;;;4997370;28;20201;-45
2023/04/11 02:09:41;;;;;;;2.55;1.80;;;;;;;;;;4997553;28;20600;-44
2023/04/11 02:12:08;;;;;;;3.75;2.67;;;;;;;;;;5014644;28;20267;-45
2023/04/11 02:14:43;;;;;;;7.95;3.63;;;;;;;;;;4997056;28;20201;-43
2023/04/11 02:17:12;;;;;;;14.93;4.50;;;;;;;;;;4992916;28;20197;-43
2023/04/11 02:19:40;;;;;;;4.13;2.70;;;;;;;;;;4992723;28;20210;-44
2023/04/11 02:22:08;;;;;;;3.33;2.10;;;;;;;;;;4976731;28;20206;-44
2023/04/11 02:24:35;;;;;;;2.57;1.87;;;;;;;;;;4993002;28;20206;-44
2023/04/11 02:27:02;;;;;;;3.27;2.10;;;;;;;;;;4992745;28;20225;-44
2023/04/11 02:29:29;;;;;;;2.30;1.90;;;;;;;;;;4992587;28;20213;-43
2023/04/11 02:31:56;;;;;;;3.03;1.53;;;;;;;;;;4992644;28;20233;-44
2023/04/11 02:34:24;;;;;;;2.73;1.93;;;;;;;;;;4992470;28;20202;-44
2023/04/11 02:36:52;;;;;;;5.80;3.05;;;;;;;;;;4991656;28;20206;-43
2023/04/11 02:39:23;;;;;;;2.53;1.83;;;;;;;;;;4976485;28;20237;-44
2023/04/11 02:41:50;;;;;;;2.63;2.10;;;;;;;;;;4992587;28;20202;-43
2023/04/11 02:44:17;;;;;;;1.33;1.10;;;;;;;;;;4976307;28;20202;-43
2023/04/11 02:46:45;;;;;;;1.23;1.10;;;;;;;;;;4976113;28;20221;-44
2023/04/11 02:49:13;;;;;;;1.77;1.37;;;;;;;;;;4994490;28;20685;-44
2023/04/11 02:51:40;;;;;;;1.45;1.15;;;;;;;;;;4996852;28;20198;-44
2023/04/11 02:54:07;;;;;;;1.60;1.30;;;;;;;;;;4996913;28;20216;-44
2023/04/11 02:56:37;;;;;;;4.60;1.97;;;;;;;;;;4996457;28;20205;-44
2023/04/11 02:59:05;;;;;;;2.43;1.60;;;;;;;;;;5014014;28;20202;-44
2023/04/11 03:01:33;;;;;;;4.37;2.37;;;;;;;;;;4996855;28;20562;-44
2023/04/11 03:04:00;;;;;;;1.00;0.97;;;;;;;;;;4996296;28;20655;-45
2023/04/11 03:06:49;;;;;;;2.50;1.67;;;;;;;;;;4996671;28;20228;-44
2023/04/11 03:09:17;;;;;;;3.97;2.10;;;;;;;;;;4996312;28;20247;-44
2023/04/11 03:11:44;;;;;;;11.13;4.60;;;;;;;;;;4996352;28;20209;-44
2023/04/11 03:14:14;;;;;;;136.48;45.25;;;;;;;;;;4996108;28;20201;-43
2023/04/11 03:16:41;;;;;;;87.07;28.07;;;;;;;;;;4995900;28;20982;-44
2023/04/11 03:19:09;;;;;;;38.20;13.80;;;;;;;;;;5013277;28;20205;-43
2023/04/11 03:21:36;;;;;;;16.30;6.50;;;;;;;;;;4995795;28;20236;-44
2023/04/11 03:24:04;;;;;;;11.43;5.13;;;;;;;;;;5013575;28;20201;-44
2023/04/11 03:26:31;;;;;;;8.27;3.17;;;;;;;;;;5013391;28;20634;-45
2023/04/11 03:29:06;;;;;;;18.00;4.33;;;;;;;;;;4995947;28;20208;-45
2023/04/11 03:31:43;;;;;;;10.07;4.07;;;;;;;;;;4995720;28;20232;-44
2023/04/11 03:34:11;;;;;;;17.93;6.40;;;;;;;;;;4995699;28;20205;-46
2023/04/11 03:36:39;;;;;;;53.30;15.47;;;;;;;;;;4995912;28;20205;-44
2023/04/11 03:39:07;;;;;;;28.63;8.00;;;;;;;;;;5013087;28;20553;-45
2023/04/11 03:41:35;;;;;;;10.80;4.10;;;;;;;;;;4995602;28;20654;-44
2023/04/11 03:44:03;;;;;;;12.13;4.90;;;;;;;;;;4995580;28;20658;-44
2023/04/11 03:46:30;;;;;;;9.33;3.63;;;;;;;;;;5011758;28;20221;-45
2023/04/11 03:48:58;;;;;;;9.35;3.75;;;;;;;;;;5022268;28;20258;-45
2023/04/11 03:51:25;;;;;;;12.70;4.90;;;;;;;;;;5018256;28;20223;-44
2023/04/11 03:54:02;;;;;;;41.10;14.50;;;;;;;;;;5020680;28;20203;-45
2023/04/11 03:56:36;;;;;;;21.70;8.60;;;;;;;;;;5018667;28;20672;-45
2023/04/11 03:59:05;;;;;;;7.10;3.40;;;;;;;;;;5019200;28;20291;-47
2023/04/11 04:01:45;;;;;;;3.33;2.45;;;;;;;;;;5018915;28;20197;-44
2023/04/11 04:04:13;;;;;;;13.47;5.57;;;;;;;;;;5034628;28;20212;-45
2023/04/11 04:06:44;;;;;;;4.63;2.67;;;;;;;;;;5016265;28;20331;-44
2023/04/11 04:09:12;;;;;;;7.50;3.37;;;;;;;;;;5015576;28;20217;-44
2023/04/11 04:11:49;;;;;;;74.17;22.83;;;;;;;;;;5012016;28;20209;-44
2023/04/11 04:14:21;;;;;;;14.50;5.80;;;;;;;;;;4999326;28;20201;-44
2023/04/11 04:16:48;;;;;;;13.05;5.03;;;;;;;;;;5030197;28;20223;-43
2023/04/11 04:19:17;;;;;;;4.40;3.05;;;;;;;;;;5017726;28;20225;-45
2023/04/11 04:21:45;;;;;;;2.67;2.07;;;;;;;;;;5017605;28;20648;-45
2023/04/11 04:24:15;;;;;;;3.05;1.88;;;;;;;;;;5005505;28;20225;-49
2023/04/11 04:26:56;;;;;;;1.97;1.77;;;;;;;;;;5018311;28;20240;-44
2023/04/11 04:29:37;;;;;;;5.80;2.27;;;;;;;;;;5033128;28;20224;-44
2023/04/11 04:32:09;;;;;;;12.17;5.20;;;;;;;;;;5018092;28;20813;-45
2023/04/11 04:34:45;;;;;;;4.57;2.77;;;;;;;;;;5014614;28;20260;-46
2023/04/11 04:37:22;;;;;;;3.25;2.15;;;;;;;;;;5032508;28;20319;-45
2023/04/11 04:40:06;;;;;;;2.30;1.97;;;;;;;;;;5018191;28;20233;-44
2023/04/11 04:42:41;;;;;;;2.95;2.15;;;;;;;;;;5017229;28;20709;-49
2023/04/11 04:45:10;;;;;;;66.93;24.13;;;;;;;;;;5017165;28;20718;-44
2023/04/11 04:47:37;;;;;;;22.17;9.95;;;;;;;;;;5033441;28;20236;-45
2023/04/11 04:50:06;;;;;;;3.97;3.03;;;;;;;;;;5034401;28;20229;-43
2023/04/11 04:52:33;;;;;;;2.92;2.22;;;;;;;;;;5034425;28;20248;-44
2023/04/11 04:55:02;;;;;;;2.90;2.00;;;;;;;;;;5017539;28;20228;-44
2023/04/11 04:57:32;;;;;;;3.53;2.10;;;;;;;;;;5017012;28;20595;-44
2023/04/11 05:00:05;;;;;;;7.75;3.25;;;;;;;;;;5015510;28;20244;-44
2023/04/11 05:02:33;;;;;;;4.95;2.30;;;;;;;;;;5069233;28;20228;-46
2023/04/11 05:05:02;;;;;;;9.38;4.32;;;;;;;;;;5037573;28;20231;-45
2023/04/11 05:07:31;;;;;;;9.93;4.93;;;;;;;;;;5020762;28;20241;-43
2023/04/11 05:09:58;;;;;;;8.43;4.68;;;;;;;;;;5053513;28;20594;-44
2023/04/11 05:12:27;;;;;;;6.00;3.72;;;;;;;;;;5036858;28;20220;-44
2023/04/11 05:15:00;;;;;;;6.00;3.33;;;;;;;;;;5036904;28;20228;-44
2023/04/11 05:17:29;;;;;;;7.03;3.47;;;;;;;;;;5036663;28;20316;-49
2023/04/11 05:19:57;;;;;;;6.65;3.63;;;;;;;;;;5015860;28;20224;-45
2023/04/11 05:22:25;;;;;;;9.13;4.35;;;;;;;;;;5014442;28;20252;-44
2023/04/11 05:24:55;;;;;;;8.60;3.95;;;;;;;;;;4997777;28;20210;-45
2023/04/11 05:27:22;;;;;;;34.17;14.00;;;;;;;;;;4996098;28;20244;-49
2023/04/11 05:29:50;;;;;;;9.02;4.63;;;;;;;;;;5014675;28;20209;-52
2023/04/11 05:32:18;;;;;;;5.03;3.35;;;;;;;;;;5024294;28;20232;-46
2023/04/11 05:34:55;;;;;;;4.65;3.22;;;;;;;;;;5034675;28;20201;-49
2023/04/11 05:37:45;;;;;;;10.35;4.50;;;;;;;;;;5034214;28;20547;-47
2023/04/11 05:40:12;;;;;;;13.23;5.47;;;;;;;;;;5032836;28;20208;-45
2023/04/11 05:42:41;;;;;;;9.15;4.18;;;;;;;;;;5035103;28;20208;-46
2023/04/11 05:45:09;;;;;;;9.48;4.47;;;;;;;;;;5034778;28;20697;-46
2023/04/11 05:47:36;;;;;;;26.75;12.63;;;;;;;;;;5030181;28;20685;-46
2023/04/11 05:50:04;;;;;;;11.30;6.45;;;;;;;;;;5016355;28;20197;-46
2023/04/11 05:52:31;;;;;;;4.40;3.30;;;;;;;;;;5033636;28;20197;-46
2023/04/11 05:55:00;;;;;;;4.18;2.85;;;;;;;;;;5015706;28;20200;-46
2023/04/11 05:57:27;;;;;;;10.20;4.15;;;;;;;;;;5033396;28;20552;-46
2023/04/11 05:59:54;;;;;;;5.05;3.05;;;;;;;;;;5033264;28;20204;-49
2023/04/11 06:02:21;;;;;;;8.90;4.32;;;;;;;;;;5031207;28;20196;-46
2023/04/11 06:04:49;;;;;;;3.85;2.72;;;;;;;;;;5033437;28;20197;-46
2023/04/11 06:07:16;;;;;;;97.75;39.20;;;;;;;;;;5033503;28;20236;-47
2023/04/11 06:09:44;;;;;;;94.15;39.47;;;;;;;;;;5032691;28;20216;-46
2023/04/11 06:12:11;;;;;;;34.58;16.60;;;;;;;;;;5013119;28;20205;-51
2023/04/11 06:14:38;;;;;;;21.77;9.40;;;;;;;;;;5027571;28;20201;-46
2023/04/11 06:17:06;;;;;;;7.00;4.47;;;;;;;;;;5033860;28;20205;-48
2023/04/11 06:19:33;;;;;;;4.22;2.78;;;;;;;;;;5033946;28;20197;-48
2023/04/11 06:22:00;;;;;;;13.00;5.05;;;;;;;;;;5033249;28;20272;-48
2023/04/11 06:24:36;;;;;;;6.63;3.67;;;;;;;;;;5032768;28;20193;-47
2023/04/11 06:27:03;;;;;;;8.30;3.58;;;;;;;;;;5027591;28;20237;-46
2023/04/11 06:29:31;;;;;;;18.33;5.93;;;;;;;;;;5032904;28;20319;-47
2023/04/11 06:31:58;;;;;;;7.10;4.28;;;;;;;;;;5031619;28;20255;-46
2023/04/11 06:34:25;;;;;;;18.10;6.38;;;;;;;;;;5032985;28;20311;-46
2023/04/11 06:36:52;;;;;;;13.13;5.25;;;;;;;;;;5032862;28;20286;-48
2023/04/11 06:39:20;;;;;;;20.20;7.57;;;;;;;;;;5032900;28;20233;-50
2023/04/11 06:41:47;;;;;;;4.38;3.10;;;;;;;;;;5013233;28;20237;-47
2023/04/11 06:44:23;;;;;;;6.03;3.15;;;;;;;;;;5015756;28;20239;-47
2023/04/11 06:46:50;;;;;;;20.63;6.25;;;;;;;;;;5033018;28;20251;-47
2023/04/11 06:49:17;;;;;;;9.10;3.65;;;;;;;;;;5032479;28;20217;-47
2023/04/11 06:51:49;;;;;;;6.70;3.97;;;;;;;;;;5033059;28;20316;-49
2023/04/11 06:54:16;;;;;;;11.30;6.25;;;;;;;;;;5052776;28;20302;-51
2023/04/11 06:56:43;;;;;;;6.18;3.92;;;;;;;;;;5051715;28;20731;-47
2023/04/11 06:59:11;;;;;;;3.65;2.42;;;;;;;;;;5023468;28;20228;-48
2023/04/11 07:01:38;;;;;;;4.10;2.85;;;;;;;;;;5029706;28;20228;-51
2023/04/11 07:04:06;;;;;;;4.47;2.78;;;;;;;;;;5032186;28;20623;-47
2023/04/11 07:06:36;;;;;;;4.55;3.05;;;;;;;;;;5013489;28;20709;-48
2023/04/11 07:09:04;;;;;;;4.28;3.30;;;;;;;;;;5031007;28;20213;-47
2023/04/11 07:11:32;;;;;;;4.43;2.92;;;;;;;;;;5030410;28;20278;-47
2023/04/11 07:13:59;;;;;;;5.85;4.05;;;;;;;;;;5031954;28;20208;-46
2023/04/11 07:16:27;;;;;;;5.43;3.42;;;;;;;;;;5030918;28;20623;-49
2023/04/11 07:18:54;;;;;;;4.13;3.28;;;;;;;;;;5029369;28;20224;-47
2023/04/11 07:21:22;;;;;;;6.63;2.78;;;;;;;;;;5032212;28;20228;-47
2023/04/11 07:23:49;;;;;;;7.95;3.42;;;;;;;;;;5034959;28;20262;-50
2023/04/11 07:26:16;;;;;;;4.95;2.78;;;;;;;;;;5035236;28;20289;-47
2023/04/11 07:28:44;;;;;;;8.90;4.40;;;;;;;;;;5038123;28;20231;-46
2023/04/11 07:31:12;;;;;;;28.10;9.93;;;;;;;;;;5038032;28;20240;-47
2023/04/11 07:33:43;;;;;;;10.40;5.00;;;;;;;;;;5037295;28;20224;-47
2023/04/11 07:36:10;;;;;;;4.90;3.60;;;;;;;;;;5038332;28;20223;-46
2023/04/11 07:38:37;;;;;;;12.57;4.95;;;;;;;;;;5037434;28;20224;-53
2023/04/11 07:41:05;;;;;;;11.00;4.85;;;;;;;;;;5036970;28;20582;-46
2023/04/11 07:43:32;;;;;;;6.20;3.70;;;;;;;;;;5038296;28;20219;-46
2023/04/11 07:45:59;;;;;;;10.98;5.07;;;;;;;;;;5038900;28;20546;-48
2023/04/11 07:48:29;;;;;;;8.48;4.80;;;;;;;;;;5038235;28;20224;-45
2023/04/11 07:50:56;;;;;;;46.95;18.05;;;;;;;;;;5035691;28;20653;-49
2023/04/11 07:53:23;;;;;;;12.73;6.57;;;;;;;;;;5038509;28;20533;-46
2023/04/11 07:55:50;;;;;;;5.53;3.63;;;;;;;;;;5037979;28;20201;-46
2023/04/11 07:58:18;;;;;;;4.32;2.65;;;;;;;;;;5038331;28;20211;-47
2023/04/11 08:00:45;;;;;;;8.55;4.40;;;;;;;;;;5037897;28;20196;-47
2023/04/11 08:03:12;;;;;;;4.65;3.22;;;;;;;;;;5038364;28;20209;-46
2023/04/11 08:05:39;;;;;;;13.75;5.78;;;;;;;;;;5038182;28;20216;-45
2023/04/11 08:08:07;;;;;;;13.82;4.97;;;;;;;;;;5037743;28;20277;-47
2023/04/11 08:10:34;;;;;;;46.72;18.40;;;;;;;;;;5037871;28;20200;-47
2023/04/11 08:13:01;;;;;;;8.13;4.57;;;;;;;;;;5037293;28;20212;-47
2023/04/11 08:15:28;;;;;;;7.00;3.47;;;;;;;;;;5038200;28;20266;-50
2023/04/11 08:17:55;;;;;;;7.80;3.90;;;;;;;;;;5037815;28;20219;-47
2023/04/11 08:20:23;;;;;;;5.20;3.22;;;;;;;;;;5037896;28;20650;-48
2023/04/11 08:22:51;;;;;;;6.47;3.45;;;;;;;;;;5037755;28;20207;-48
2023/04/11 08:25:24;;;;;;;14.73;5.35;;;;;;;;;;5033480;28;20201;-48
2023/04/11 08:27:51;;;;;;;5.38;3.08;;;;;;;;;;5038677;28;20213;-48
2023/04/11 08:30:19;;;;;;;38.88;14.82;;;;;;;;;;5036729;28;20208;-48
2023/04/11 08:32:46;;;;;;;9.57;5.13;;;;;;;;;;5035204;28;20573;-47
2023/04/11 08:35:13;;;;;;;9.23;4.90;;;;;;;;;;5032200;28;20216;-47
2023/04/11 08:37:43;;;;;;;6.53;3.63;;;;;;;;;;5034602;28;20219;-47
2023/04/11 08:40:10;;;;;;;8.50;4.32;;;;;;;;;;5034938;28;20196;-52
2023/04/11 08:42:38;;;;;;;7.55;4.32;;;;;;;;;;5035657;28;20287;-47
2023/04/11 08:45:07;;;;;;;4.47;3.10;;;;;;;;;;5018635;28;20200;-47
2023/04/11 08:47:38;;;;;;;9.13;4.35;;;;;;;;;;5036090;28;20225;-47
2023/04/11 08:50:06;;;;;;;57.67;19.52;;;;;;;;;;5034255;28;20280;-47
2023/04/11 08:52:34;;;;;;;8.52;5.10;;;;;;;;;;5035944;28;20201;-46
2023/04/11 08:55:02;;;;;;;4.10;3.03;;;;;;;;;;5034007;28;20212;-50
2023/04/11 08:57:30;;;;;;;4.00;2.75;;;;;;;;;;5033652;28;20208;-50
2023/04/11 09:00:08;;;;;;;4.85;2.90;;;;;;;;;;5033973;28;20250;-46
2023/04/11 09:02:53;;;;;;;4.68;3.03;;;;;;;;;;5033667;28;20189;-51
2023/04/11 09:05:27;;;;;;;7.85;3.65;;;;;;;;;;5033946;28;20276;-49
2023/04/11 09:07:59;;;;;;;12.38;5.50;;;;;;;;;;5027696;28;20212;-46
2023/04/11 09:10:26;;;;;;;85.97;27.65;;;;;;;;;;5034416;28;20618;-46
2023/04/11 09:12:54;;;;;;;6.63;4.15;;;;;;;;;;5034068;28;20236;-49
2023/04/11 09:15:29;;;;;;;8.20;4.22;;;;;;;;;;5034805;28;20196;-45
2023/04/11 09:17:56;;;;;;;13.95;6.03;;;;;;;;;;5034575;28;20918;-47
2023/04/11 09:20:29;;;;;;;11.15;5.05;;;;;;;;;;5032127;28;20196;-47
2023/04/11 09:23:00;;;;;;;7.72;3.60;;;;;;;;;;5034655;28;20243;-47
2023/04/11 09:25:27;;;;;;;5.75;3.00;;;;;;;;;;5035392;28;20246;-46
2023/04/11 09:28:09;;;;;;;9.75;4.43;;;;;;;;;;5034652;28;20229;-49
2023/04/11 09:30:36;;;;;;;44.05;16.70;;;;;;;;;;5031663;28;20582;-50
2023/04/11 09:33:23;;;;;;;6.90;4.05;;;;;;;;;;5010624;28;20674;-51
2023/04/11 09:35:52;;;;;;;4.00;2.58;;;;;;;;;;5029038;28;20243;-48
2023/04/11 09:38:27;;;;;;;6.18;3.10;;;;;;;;;;5016309;28;20232;-52
2023/04/11 09:40:55;;;;;;;4.68;2.92;;;;;;;;;;5033322;28;20597;-48
2023/04/11 09:43:23;;;;;;;5.35;3.15;;;;;;;;;;5029232;28;20205;-48
2023/04/11 09:46:10;;;;;;;5.05;2.90;;;;;;;;;;5013901;28;20198;-48
2023/04/11 09:48:38;;;;;;;63.60;26.40;;;;;;;;;;5020790;28;20666;-47
2023/04/11 09:51:13;;;;;;;32.95;12.70;;;;;;;;;;5034197;28;20188;-49
2023/04/11 09:54:02;;;;;;;3.85;2.47;;;;;;;;;;5034437;28;20200;-49
2023/04/11 09:56:30;;;;;;;4.43;2.80;;;;;;;;;;5034555;28;20201;-51
2023/04/11 09:58:59;;;;;;;3.38;2.00;;;;;;;;;;5034023;28;20284;-50
2023/04/11 10:01:26;;;;;;;3.38;2.33;;;;;;;;;;5034484;28;20615;-51
2023/04/11 10:03:54;;;;;;;3.47;2.10;;;;;;;;;;5034052;28;20696;-48
2023/04/11 10:06:38;;;;;;;5.40;3.50;;;;;;;;;;5034343;28;20236;-49
2023/04/11 10:09:07;;;;;;;8.68;5.70;;;;;;;;;;5032253;28;20216;-48
2023/04/11 10:11:34;;;;;;;4.60;3.13;;;;;;;;;;5034182;28;20201;-46
2023/04/11 10:14:02;;;;;;;3.38;2.22;;;;;;;;;;5047646;28;20247;-47
2023/04/11 10:16:32;;;;;;;4.78;2.58;;;;;;;;;;5032907;28;20212;-46
2023/04/11 10:19:00;;;;;;;7.07;3.75;;;;;;;;;;5010864;28;20713;-48
2023/04/11 10:21:33;;;;;;;12.55;5.05;;;;;;;;;;5011246;28;20291;-48
2023/04/11 10:24:08;;;;;;;4.60;2.20;;;;;;;;;;5010349;28;20247;-45
2023/04/11 10:26:46;;;;;;;8.55;3.75;;;;;;;;;;5011344;28;20212;-47
2023/04/11 10:29:39;;;;;;;12.75;6.72;;;;;;;;;;5009499;28;20721;-48
2023/04/11 10:32:10;;;;;;;4.32;3.00;;;;;;;;;;5022071;28;20221;-48
2023/04/11 10:34:40;;;;;;;5.45;3.08;;;;;;;;;;5032817;28;20185;-49
2023/04/11 10:37:08;;;;;;;13.52;4.90;;;;;;;;;;5026645;28;20621;-48
2023/04/11 10:39:56;;;;;;;12.55;5.00;;;;;;;;;;5032856;28;20197;-44
2023/04/11 10:42:27;;;;;;;5.78;3.03;;;;;;;;;;5032622;28;20219;-43
2023/04/11 10:45:13;;;;;;;7.95;3.75;;;;;;;;;;5032502;28;20197;-48
2023/04/11 10:47:40;;;;;;;4.50;2.97;;;;;;;;;;5029944;28;20620;-45
2023/04/11 10:50:25;;;;;;;12.82;7.18;;;;;;;;;;5032009;28;20223;-44
2023/04/11 10:52:54;;;;;;;5.65;2.97;;;;;;;;;;5030328;28;20195;-48
2023/04/11 10:55:22;;;;;;;4.60;3.38;;;;;;;;;;5033607;28;20203;-49
2023/04/11 10:58:06;;;;;;;5.82;2.60;;;;;;;;;;5031660;28;20654;-47
2023/04/11 11:00:45;;;;;;;4.18;2.20;;;;;;;;;;5029532;28;20197;-46
2023/04/11 11:03:20;;;;;;;5.88;2.83;;;;;;;;;;5012134;28;20212;-48
2023/04/11 11:05:58;;;;;;;3.90;2.53;;;;;;;;;;5032340;28;20181;-44
2023/04/11 11:08:41;;;;;;;20.23;7.13;;;;;;;;;;5032002;28;20578;-50
2023/04/11 11:11:10;;;;;;;10.43;5.10;;;;;;;;;;5030772;28;20200;-48
2023/04/11 11:13:48;;;;;;;5.25;2.58;;;;;;;;;;5032249;28;20201;-50
2023/04/11 11:16:21;;;;;;;4.50;2.42;;;;;;;;;;5032346;28;20185;-47
2023/04/11 11:18:53;;;;;;;14.32;5.00;;;;;;;;;;5031535;28;20193;-46
2023/04/11 11:21:23;;;;;;;7.45;3.58;;;;;;;;;;5032802;28;20185;-48
2023/04/11 11:23:57;;;;;;;4.72;2.45;;;;;;;;;;5032570;28;20239;-46
2023/04/11 11:26:40;;;;;;;10.05;4.03;;;;;;;;;;5032573;28;20193;-45
2023/04/11 11:29:08;;;;;;;17.80;10.02;;;;;;;;;;5031438;28;20216;-45
2023/04/11 11:31:44;;;;;;;13.23;5.72;;;;;;;;;;5041070;28;20897;-45
2023/04/11 11:34:12;;;;;;;3.45;1.88;;;;;;;;;;5013180;28;20642;-44
2023/04/11 11:36:51;;;;;;;5.13;2.42;;;;;;;;;;5012352;28;20719;-46
2023/04/11 11:39:18;;;;;;;3.75;2.20;;;;;;;;;;5011765;28;20213;-46
2023/04/11 11:41:48;;;;;;;6.32;2.60;;;;;;;;;;5013671;28;20201;-44
2023/04/11 11:44:22;;;;;;;10.95;4.22;;;;;;;;;;5013548;28;20201;-46
2023/04/11 11:47:18;;;;;;;12.93;4.65;;;;;;;;;;5013780;28;20193;-45
2023/04/11 11:49:47;;;;;;;11.30;6.13;;;;;;;;;;5013462;28;20251;-49
2023/04/11 11:52:31;;;;;;;7.75;4.75;;;;;;;;;;5032029;28;20278;-45
2023/04/11 11:55:00;;;;;;;3.38;1.98;;;;;;;;;;5033305;28;20594;-45
2023/04/11 11:57:27;;;;;;;3.05;2.00;;;;;;;;;;5030425;28;20209;-47
2023/04/11 11:59:55;;;;;;;4.47;2.53;;;;;;;;;;5032607;28;20208;-45
2023/04/11 12:02:24;;;;;;;4.85;2.65;;;;;;;;;;5032842;28;20208;-45
2023/04/11 12:05:04;;;;;;;3.03;2.25;;;;;;;;;;5032817;28;20205;-44
2023/04/11 12:07:33;;;;;;;6.38;2.60;;;;;;;;;;5033030;28;20201;-44
2023/04/11 12:10:08;;;;;;;12.13;5.00;;;;;;;;;;5028735;28;20568;-45
2023/04/11 12:12:43;;;;;;;2.58;2.33;;;;;;;;;;5020188;28;20207;-46
2023/04/11 12:15:21;;;;;;;2.45;2.10;;;;;;;;;;5036074;28;20193;-45
2023/04/11 12:17:50;;;;;;;3.08;2.33;;;;;;;;;;5036749;28;20614;-46
2023/04/11 12:20:25;;;;;;;1.95;1.73;;;;;;;;;;5036692;28;20683;-45
2023/04/11 12:22:53;;;;;;;3.38;2.50;;;;;;;;;;5036439;28;20204;-45
2023/04/11 12:25:21;;;;;;;6.97;3.35;;;;;;;;;;5036502;28;20204;-44
2023/04/11 12:27:49;;;;;;;10.27;4.45;;;;;;;;;;5035579;28;20236;-46
2023/04/11 12:30:16;;;;;;;40.00;14.85;;;;;;;;;;5033708;28;20231;-45
2023/04/11 12:32:44;;;;;;;9.75;3.47;;;;;;;;;;5029796;28;20700;-46
2023/04/11 12:35:11;;;;;;;2.55;2.35;;;;;;;;;;5031224;28;20220;-45
2023/04/11 12:37:39;;;;;;;4.55;2.67;;;;;;;;;;5032983;28;20233;-45
2023/04/11 12:40:09;;;;;;;3.63;2.60;;;;;;;;;;5035068;28;20697;-44
2023/04/11 12:42:38;;;;;;;10.23;4.18;;;;;;;;;;5035884;28;20225;-44
2023/04/11 12:45:21;;;;;;;7.10;3.33;;;;;;;;;;5029625;28;20221;-45
2023/04/11 12:47:49;;;;;;;12.10;5.18;;;;;;;;;;5030239;28;20229;-45
2023/04/11 12:50:16;;;;;;;43.30;18.80;;;;;;;;;;5035141;28;20224;-44
2023/04/11 12:52:43;;;;;;;8.25;5.03;;;;;;;;;;5034980;28;20225;-45
2023/04/11 12:55:11;;;;;;;4.22;2.80;;;;;;;;;;5023767;28;20221;-46
2023/04/11 12:57:40;;;;;;;12.02;4.70;;;;;;;;;;5032354;28;20232;-47
2023/04/11 13:00:10;;;;;;;10.02;4.90;;;;;;;;;;5030716;28;20685;-45
2023/04/11 13:02:37;;;;;;;20.65;6.28;;;;;;;;;;5032030;28;20216;-46
2023/04/11 13:05:14;;;;;;;14.35;4.90;;;;;;;;;;5033457;28;20229;-50
2023/04/11 13:07:43;;;;;;;16.23;5.25;;;;;;;;;;5033660;28;20216;-49
2023/04/11 13:10:12;;;;;;;30.15;12.93;;;;;;;;;;5032216;28;20268;-50
2023/04/11 13:12:43;;;;;;;6.43;3.25;;;;;;;;;;5032487;28;20216;-49
2023/04/11 13:15:15;;;;;;;13.35;4.43;;;;;;;;;;5033456;28;20252;-46
2023/04/11 13:17:42;;;;;;;5.90;3.05;;;;;;;;;;5032953;28;20221;-48
2023/04/11 13:20:11;;;;;;;3.80;2.13;;;;;;;;;;5014726;28;20347;-53
2023/04/11 13:22:40;;;;;;;6.45;3.03;;;;;;;;;;5032782;28;20228;-44
2023/04/11 13:25:08;;;;;;;6.32;3.15;;;;;;;;;;5032374;28;20224;-49
2023/04/11 13:27:38;;;;;;;7.13;3.25;;;;;;;;;;5029749;28;20227;-48
2023/04/11 13:30:06;;;;;;;26.45;9.48;;;;;;;;;;5032278;28;20259;-50
2023/04/11 13:32:33;;;;;;;24.23;9.02;;;;;;;;;;5032437;28;20283;-46
2023/04/11 13:35:01;;;;;;;10.45;4.38;;;;;;;;;;5032831;28;20614;-47
2023/04/11 13:37:28;;;;;;;2.28;1.90;;;;;;;;;;5032822;28;20220;-44
2023/04/11 13:39:55;;;;;;;4.53;2.67;;;;;;;;;;5033758;28;20252;-44
2023/04/11 13:42:22;;;;;;;9.68;4.00;;;;;;;;;;5033187;28;20225;-45
2023/04/11 13:44:49;;;;;;;6.43;3.38;;;;;;;;;;5032688;28;20230;-45
2023/04/11 13:47:16;;;;;;;11.18;4.60;;;;;;;;;;5032799;28;20217;-45
2023/04/11 13:49:43;;;;;;;95.25;33.00;;;;;;;;;;5033955;28;20240;-46
2023/04/11 13:52:10;;;;;;;18.58;8.93;;;;;;;;;;5032795;28;20213;-48
2023/04/11 13:54:38;;;;;;;7.63;4.63;;;;;;;;;;5032668;28;20209;-45
2023/04/11 13:57:08;;;;;;;15.93;5.45;;;;;;;;;;5032129;28;20216;-49
2023/04/11 13:59:35;;;;;;;6.28;3.55;;;;;;;;;;5032276;28;20291;-49
2023/04/11 14:02:02;;;;;;;7.53;3.63;;;;;;;;;;5031938;28;20243;-49
2023/04/11 14:04:30;;;;;;;8.48;4.20;;;;;;;;;;5028225;28;20266;-48
2023/04/11 14:06:57;;;;;;;6.57;3.10;;;;;;;;;;5031332;28;20227;-47
2023/04/11 14:09:24;;;;;;;23.52;10.98;;;;;;;;;;5032355;28;20590;-48
2023/04/11 14:11:52;;;;;;;17.92;8.55;;;;;;;;;;5032130;28;20621;-52
2023/04/11 14:14:19;;;;;;;4.05;2.97;;;;;;;;;;5031195;28;20255;-46
2023/04/11 14:16:46;;;;;;;4.07;3.20;;;;;;;;;;5031539;28;20229;-46
2023/04/11 14:19:13;;;;;;;8.88;4.15;;;;;;;;;;5033131;28;20225;-48
2023/04/11 14:21:40;;;;;;;11.23;4.32;;;;;;;;;;5052887;28;20221;-45
2023/04/11 14:24:08;;;;;;;12.80;5.00;;;;;;;;;;5036686;28;20266;-45
2023/04/11 14:26:36;;;;;;;10.15;3.97;;;;;;;;;;5033203;28;20232;-46
2023/04/11 14:29:03;;;;;;;12.82;7.00;;;;;;;;;;5032262;28;20287;-47
2023/04/11 14:31:31;;;;;;;15.85;6.57;;;;;;;;;;5031679;28;20228;-48
2023/04/11 14:33:58;;;;;;;9.85;5.10;;;;;;;;;;5028208;28;20227;-46
2023/04/11 14:36:26;;;;;;;23.42;8.30;;;;;;;;;;5032310;28;20228;-49
2023/04/11 14:38:53;;;;;;;13.93;5.57;;;;;;;;;;5030069;28;20240;-44
2023/04/11 14:41:20;;;;;;;11.38;5.03;;;;;;;;;;5031366;28;20216;-46
2023/04/11 14:43:48;;;;;;;4.63;2.92;;;;;;;;;;5028343;28;20669;-46
2023/04/11 14:46:15;;;;;;;12.55;5.30;;;;;;;;;;5031709;28;20240;-46
2023/04/11 14:48:43;;;;;;;312.98;142.82;;;;;;;;;;5037983;28;20236;-48
2023/04/11 14:51:10;;;;;;;164.15;89.53;;;;;;;;;;5031098;28;20221;-47